Time;durP1;ratioP1;P1;durP2;ratioP2;P2;SDS_P1;SDS_P2;PMS_P1;PMS_P2;Temp;Humidity;BMP_temperature;BMP_pressure;BME280_temperature;BME280_humidity;BME280_pressure;Samples;Min_cycle;Max_cycle;Signal;HPM_P1;HPM_P2
2023/10/26 00:00:53;;;;;;;14.68;8.35;;;;;;;;;;4903623;29;20061;-71
2023/10/26 00:03:19;;;;;;;8.45;7.18;;;;;;;;;;4918864;29;20046;-71
2023/10/26 00:05:45;;;;;;;10.82;7.43;;;;;;;;;;4906454;29;20035;-71
2023/10/26 00:08:11;;;;;;;11.32;7.38;;;;;;;;;;4919375;29;20507;-71
2023/10/26 00:10:41;;;;;;;8.20;7.07;;;;;;;;;;4920272;29;20172;-71
2023/10/26 00:13:07;;;;;;;10.15;8.00;;;;;;;;;;4936268;29;20051;-71
2023/10/26 00:15:33;;;;;;;10.10;7.45;;;;;;;;;;4916971;29;20385;-71
2023/10/26 00:18:00;;;;;;;11.38;8.07;;;;;;;;;;4919137;29;20076;-70
2023/10/26 00:20:26;;;;;;;13.10;8.80;;;;;;;;;;4918818;29;20114;-70
2023/10/26 00:22:52;;;;;;;16.27;8.25;;;;;;;;;;4904281;29;20036;-70
2023/10/26 00:25:18;;;;;;;17.40;10.45;;;;;;;;;;4919743;29;20036;-70
2023/10/26 00:27:44;;;;;;;19.60;10.80;;;;;;;;;;4918834;29;20178;-69
2023/10/26 00:30:13;;;;;;;20.00;12.13;;;;;;;;;;4918539;29;20051;-69
2023/10/26 00:32:40;;;;;;;25.67;13.80;;;;;;;;;;4918713;29;20043;-70
2023/10/26 00:35:06;;;;;;;23.30;12.75;;;;;;;;;;4916797;29;20066;-70
2023/10/26 00:37:32;;;;;;;19.60;12.13;;;;;;;;;;4918651;29;20050;-69
2023/10/26 00:39:59;;;;;;;23.00;13.07;;;;;;;;;;4918518;29;20196;-70
2023/10/26 00:42:25;;;;;;;22.30;12.40;;;;;;;;;;4918278;29;20047;-70
2023/10/26 00:44:53;;;;;;;22.80;13.10;;;;;;;;;;4919103;29;20065;-71
2023/10/26 00:47:20;;;;;;;18.23;13.85;;;;;;;;;;4903097;29;20386;-70
2023/10/26 00:49:46;;;;;;;23.85;13.55;;;;;;;;;;4918801;29;20119;-70
2023/10/26 00:52:12;;;;;;;23.90;12.05;;;;;;;;;;4918238;29;20062;-70
2023/10/26 00:54:41;;;;;;;21.42;12.15;;;9.30;99.90;;;;;;4918256;29;20040;-70
2023/10/26 00:57:07;;;;;;;23.65;12.70;;;;;;;;;;4918462;29;20047;-70
2023/10/26 00:59:34;;;;;;;21.23;12.10;;;;;;;;;;4918393;29;20477;-70
2023/10/26 01:02:02;;;;;;;21.17;12.65;;;9.40;99.90;;;;;;4902649;29;20202;-70
2023/10/26 01:04:28;;;;;;;23.35;12.50;;;;;;;;;;4918433;29;20062;-70
2023/10/26 01:06:54;;;;;;;26.45;15.55;;;;;;;;;;4902528;29;20400;-70
2023/10/26 01:09:21;;;;;;;30.25;14.93;;;;;;;;;;4918252;29;20048;-70
2023/10/26 01:11:47;;;;;;;27.70;15.35;;;;;;;;;;4918228;29;20078;-70
2023/10/26 01:14:14;;;;;;;27.02;14.98;;;9.60;99.90;;;;;;4918350;29;20067;-70
2023/10/26 01:16:40;;;;;;;26.13;16.08;;;;;;;;;;4918131;29;20130;-70
2023/10/26 01:19:09;;;;;;;31.50;16.05;;;;;;;;;;4917713;29;20045;-70
2023/10/26 01:21:51;;;;;;;29.30;16.27;;;;;;;;;;4917389;29;20457;-71
2023/10/26 01:24:17;;;;;;;31.05;16.40;;;;;;;;;;4918316;29;20043;-71
2023/10/26 01:26:43;;;;;;;46.38;17.67;;;;;;;;;;4917682;29;20036;-71
2023/10/26 01:29:10;;;;;;;28.48;16.98;;;;;;;;;;4917989;29;20043;-71
2023/10/26 01:31:36;;;;;;;37.45;20.05;;;;;;;;;;4901859;29;20482;-71
2023/10/26 01:34:02;;;;;;;43.85;19.65;;;;;;;;;;4932487;29;20083;-69
2023/10/26 01:36:28;;;;;;;38.50;19.65;;;;;;;;;;4918060;29;20134;-70
2023/10/26 01:38:55;;;;;;;30.38;19.38;;;;;;;;;;4917588;29;20047;-69
2023/10/26 01:41:21;;;;;;;33.88;19.02;;;9.80;99.90;;;;;;4917480;29;20448;-69
2023/10/26 01:43:48;;;;;;;33.05;19.50;;;;;;;;;;4916539;29;20051;-69
2023/10/26 01:46:14;;;;;;;36.72;19.77;;;;;;;;;;4918012;29;20054;-70
2023/10/26 01:48:40;;;;;;;33.05;19.08;;;;;;;;;;4902201;29;20443;-70
2023/10/26 01:51:06;;;;;;;34.58;19.17;;;;;;;;;;4917952;29;20036;-70
2023/10/26 01:53:32;;;;;;;33.28;20.13;;;;;;;;;;4917625;29;20039;-70
2023/10/26 01:55:58;;;;;;;41.33;21.05;;;;;;;;;;4886900;29;20040;-70
2023/10/26 01:58:24;;;;;;;32.58;20.35;;;;;;;;;;4917274;29;20035;-70
2023/10/26 02:00:50;;;;;;;41.10;21.92;;;;;;;;;;4917510;29;20040;-70
2023/10/26 02:03:18;;;;;;;38.92;22.35;;;;;;;;;;4917326;29;20098;-70
2023/10/26 02:05:44;;;;;;;40.40;20.63;;;;;;;;;;4895681;29;20044;-70
2023/10/26 02:08:11;;;;;;;34.95;21.35;;;;;;;;;;4917406;29;20126;-70
2023/10/26 02:10:37;;;;;;;38.72;21.50;;;;;;;;;;4934662;29;20473;-71
2023/10/26 02:13:03;;;;;;;40.33;21.38;;;;;;;;;;4917151;29;20035;-71
2023/10/26 02:15:29;;;;;;;34.47;20.70;;;;;;;;;;4887768;29;20040;-69
2023/10/26 02:17:55;;;;;;;35.47;20.85;;;;;;;;;;4901592;29;20481;-70
2023/10/26 02:20:21;;;;;;;40.33;22.45;;;;;;;;;;4917294;29;20036;-70
2023/10/26 02:22:47;;;;;;;35.95;22.02;;;;;;;;;;4901572;29;20036;-70
2023/10/26 02:25:14;;;;;;;35.67;22.75;;;;;;;;;;4886158;29;20119;-70
2023/10/26 02:27:40;;;;;;;42.17;22.45;;;;;;;;;;4917435;29;20074;-70
2023/10/26 02:30:06;;;;;;;37.45;22.55;;;10.70;99.90;;;;;;4916557;29;20047;-70
2023/10/26 02:32:33;;;;;;;41.63;22.75;;;;;;;;;;4901560;29;20614;-70
2023/10/26 02:34:59;;;;;;;37.92;21.50;;;;;;;;;;4903798;29;20050;-70
2023/10/26 02:37:25;;;;;;;44.85;23.23;;;;;;;;;;4914970;29;20039;-73
2023/10/26 02:39:51;;;;;;;39.30;21.98;;;;;;;;;;4916218;29;20051;-74
2023/10/26 02:42:17;;;;;;;41.00;23.40;;;;;;;;;;4915796;29;20032;-74
2023/10/26 02:44:44;;;;;;;35.47;21.55;;;;;;;;;;4916493;29;20055;-74
2023/10/26 02:47:10;;;;;;;36.38;21.65;;;;;;;;;;4933764;29;20051;-74
2023/10/26 02:49:36;;;;;;;39.10;23.00;;;;;;;;;;4917162;29;20126;-74
2023/10/26 02:52:02;;;;;;;40.42;22.55;;;;;;;;;;4917300;29;20050;-74
2023/10/26 02:54:28;;;;;;;31.45;21.23;;;;;;;;;;4903345;29;20044;-74
2023/10/26 02:56:54;;;;;;;33.13;20.95;;;;;;;;;;4891622;29;20044;-74
2023/10/26 02:59:21;;;;;;;31.40;19.30;;;;;;;;;;4905046;29;20036;-73
2023/10/26 03:01:47;;;;;;;32.67;20.17;;;;;;;;;;4920562;29;20036;-74
2023/10/26 03:04:13;;;;;;;33.47;21.13;;;;;;;;;;4920584;29;20040;-74
2023/10/26 03:06:39;;;;;;;43.15;22.23;;;9.30;99.90;;;;;;4895271;29;20122;-70
2023/10/26 03:09:08;;;;;;;36.83;21.10;;;9.30;99.90;;;;;;4920261;29;20040;-72
2023/10/26 03:11:34;;;;;;;27.77;18.67;;;;;;;;;;4920750;29;20035;-70
2023/10/26 03:14:00;;;;;;;34.13;20.38;;;;;;;;;;4920453;29;20503;-70
2023/10/26 03:16:26;;;;;;;32.00;20.15;;;;;;;;;;4898592;29;20074;-70
2023/10/26 03:18:52;;;;;;;30.95;18.55;;;;;;;;;;4920361;29;20043;-70
2023/10/26 03:21:20;;;;;;;32.58;19.40;;;;;;;;;;4920337;29;20043;-70
2023/10/26 03:23:52;;;;;;;29.58;20.05;;;;;;;;;;4899646;29;20083;-70
2023/10/26 03:26:18;;;;;;;31.05;19.83;;;;;;;;;;4919473;29;20040;-70
2023/10/26 03:28:44;;;;;;;33.90;19.98;;;;;;;;;;4920048;29;20043;-73
2023/10/26 03:31:13;;;;;;;60.97;20.42;;;;;;;;;;4919987;29;20035;-74
2023/10/26 03:33:39;;;;;;;42.85;19.48;;;;;;;;;;4919913;29;20047;-74
2023/10/26 03:36:12;;;;;;;47.55;19.17;;;;;;;;;;4920195;29;20032;-74
2023/10/26 03:38:38;;;;;;;49.60;18.67;;;;;;;;;;4919731;29;20039;-74
2023/10/26 03:41:04;;;;;;;84.43;16.80;;;;;;;;;;4920225;29;20500;-74
2023/10/26 03:43:30;;;;;;;95.15;18.45;;;;;;;;;;4904408;29;20134;-74
2023/10/26 03:45:56;;;;;;;136.82;16.98;;;;;;;;;;4919684;29;20053;-74
2023/10/26 03:48:23;;;;;;;98.13;16.10;;;;;;;;;;4901667;29;20075;-74
2023/10/26 03:50:49;;;;;;;109.00;15.68;;;;;;;;;;4904466;29;20070;-74
2023/10/26 03:53:15;;;;;;;177.05;14.95;;;;;;;;;;4919422;29;20138;-74
2023/10/26 03:55:41;;;;;;;69.70;14.13;;;;;;;;;;4919489;29;20052;-73
2023/10/26 03:58:07;;;;;;;36.33;13.52;;;;;;;;;;4916616;29;20052;-74
2023/10/26 04:00:33;;;;;;;15.57;12.65;;;;;;;;;;4919651;29;20039;-73
2023/10/26 04:02:59;;;;;;;104.47;13.02;;;;;;;;;;4919728;29;20383;-75
2023/10/26 04:05:25;;;;;;;126.05;13.30;;;;;;;;;;4918846;29;20103;-74
2023/10/26 04:07:51;;;;;;;65.05;12.18;;;;;;;;;;4903286;29;20040;-74
2023/10/26 04:10:17;;;;;;;182.52;12.98;;;;;;;;;;4919319;29;20103;-74
2023/10/26 04:12:44;;;;;;;62.63;11.55;;;;;;;;;;4919560;29;20489;-73
2023/10/26 04:15:10;;;;;;;44.38;12.45;;;;;;;;;;4919202;29;20524;-74
2023/10/26 04:17:36;;;;;;;51.40;12.60;;;;;;;;;;4918952;29;20078;-74
2023/10/26 04:20:02;;;;;;;110.53;12.55;;;;;;;;;;4903697;29;20035;-74
2023/10/26 04:22:28;;;;;;;99.50;12.57;;;;;;;;;;4919294;29;20046;-74
2023/10/26 04:24:55;;;;;;;63.67;11.80;;;;;;;;;;4919232;29;20063;-74
2023/10/26 04:27:21;;;;;;;76.93;11.32;;;;;;;;;;4919283;29;20047;-74
2023/10/26 04:29:47;;;;;;;106.47;11.68;;;;;;;;;;4903298;29;20130;-74
2023/10/26 04:32:13;;;;;;;129.55;11.75;;;;;;;;;;4919484;29;20064;-74
2023/10/26 04:34:43;;;;;;;157.27;12.18;;;;;;;;;;4918904;29;20043;-73
2023/10/26 04:37:10;;;;;;;157.25;11.43;;;;;;;;;;4918988;29;20040;-73
2023/10/26 04:39:36;;;;;;;223.77;11.57;;;;;;;;;;4919201;29;20043;-70
2023/10/26 04:42:03;;;;;;;206.48;11.98;;;;;;;;;;4919163;29;20390;-72
2023/10/26 04:44:30;;;;;;;260.73;11.90;;;;;;;;;;4918454;29;20485;-75
2023/10/26 04:46:56;;;;;;;259.52;12.13;;;;;;;;;;4902752;29;20044;-71
2023/10/26 04:49:22;;;;;;;168.75;10.85;;;;;;;;;;4902991;29;20047;-70
2023/10/26 04:51:48;;;;;;;139.52;11.55;;;;;;;;;;4918943;29;20062;-71
2023/10/26 04:54:14;;;;;;;110.07;11.05;;;;;;;;;;4918904;29;20040;-71
2023/10/26 04:56:42;;;;;;;90.63;11.38;;;;;;;;;;4918571;29;20115;-70
2023/10/26 04:59:08;;;;;;;50.70;11.00;;;;;;;;;;4900954;29;20040;-71
2023/10/26 05:01:34;;;;;;;25.63;10.85;;;;;;;;;;4918396;29;20472;-70
2023/10/26 05:04:00;;;;;;;24.30;10.05;;;;;;;;;;4902477;29;20047;-71
2023/10/26 05:06:26;;;;;;;39.13;9.85;;;;;;;;;;4918123;29;20131;-71
2023/10/26 05:08:52;;;;;;;25.15;9.15;;;;;;;;;;4902440;29;20048;-71
2023/10/26 05:11:19;;;;;;;54.72;10.85;;;8.30;99.90;;;;;;4918432;29;20094;-71
2023/10/26 05:13:45;;;;;;;20.50;10.00;;;;;;;;;;4917825;29;20127;-71
2023/10/26 05:16:11;;;;;;;55.30;11.40;;;;;;;;;;4918036;29;20036;-70
2023/10/26 05:18:37;;;;;;;74.40;11.20;;;8.20;99.90;;;;;;4888447;29;20099;-71
2023/10/26 05:21:04;;;;;;;35.97;10.80;;;;;;;;;;4917997;29;20032;-71
2023/10/26 05:23:30;;;;;;;23.02;11.32;;;;;;;;;;4918437;29;20032;-73
2023/10/26 05:25:56;;;;;;;73.95;11.85;;;;;;;;;;4918033;29;20047;-74
2023/10/26 05:28:22;;;;;;;60.00;10.98;;;;;;;;;;4917563;29;20044;-74
2023/10/26 05:30:48;;;;;;;65.90;11.73;;;;;;;;;;4916755;29;20048;-74
2023/10/26 05:33:15;;;;;;;34.80;10.77;;;;;;;;;;4917114;29;20040;-74
2023/10/26 05:35:41;;;;;;;24.95;10.75;;;;;;;;;;4917443;29;20043;-75
2023/10/26 05:38:09;;;;;;;29.67;10.82;;;;;;;;;;4902123;29;20048;-74
2023/10/26 05:40:35;;;;;;;17.23;11.07;;;;;;;;;;4900767;29;20047;-74
2023/10/26 05:43:02;;;;;;;50.83;11.50;;;;;;;;;;4901748;29;20051;-74
2023/10/26 05:45:29;;;;;;;68.57;11.15;;;;;;;;;;4917625;29;20191;-74
2023/10/26 05:47:55;;;;;;;68.35;11.73;;;;;;;;;;4917808;29;20066;-74
2023/10/26 05:50:21;;;;;;;12.90;10.25;;;;;;;;;;4902040;29;20040;-74
2023/10/26 05:52:48;;;;;;;45.40;10.63;;;;;;;;;;4917549;29;20048;-74
2023/10/26 05:55:14;;;;;;;98.80;10.95;;;;;;;;;;4917395;29;20102;-74
2023/10/26 05:57:40;;;;;;;103.28;11.70;;;;;;;;;;4901743;29;20131;-74
2023/10/26 06:00:09;;;;;;;67.10;10.65;;;;;;;;;;4888311;29;20040;-74
2023/10/26 06:02:36;;;;;;;12.60;9.90;;;;;;;;;;4916839;29;20039;-74
2023/10/26 06:05:02;;;;;;;54.10;10.50;;;;;;;;;;4917446;29;20032;-74
2023/10/26 06:07:28;;;;;;;24.88;9.57;;;;;;;;;;4917619;29;20061;-75
2023/10/26 06:09:54;;;;;;;31.67;10.60;;;;;;;;;;4917529;29;20160;-74
2023/10/26 06:12:20;;;;;;;48.17;10.15;;;;;;;;;;4917007;29;20135;-74
2023/10/26 06:14:46;;;;;;;19.70;10.27;;;;;;;;;;4886129;29;20126;-74
2023/10/26 06:17:12;;;;;;;11.52;9.75;;;;;;;;;;4871315;29;20044;-71
2023/10/26 06:19:38;;;;;;;14.65;9.65;;;;;;;;;;4897786;29;20040;-71
2023/10/26 06:22:04;;;;;;;20.27;10.45;;;;;;;;;;4917476;29;20036;-71
2023/10/26 06:24:30;;;;;;;32.28;10.48;;;;;;;;;;4917344;29;20047;-71
2023/10/26 06:26:56;;;;;;;55.25;10.55;;;;;;;;;;4917578;29;20134;-71
2023/10/26 06:29:23;;;;;;;16.08;10.80;;;;;;;;;;4902401;29;20058;-71
2023/10/26 06:31:49;;;;;;;28.30;10.93;;;;;;;;;;4920786;29;20082;-71
2023/10/26 06:34:15;;;;;;;21.10;10.00;;;;;;;;;;4904867;29;20102;-71
2023/10/26 06:36:41;;;;;;;12.65;10.35;;;;;;;;;;4903291;29;20043;-71
2023/10/26 06:39:07;;;;;;;18.33;11.38;;;;;;;;;;4920381;29;20043;-71
2023/10/26 06:41:33;;;;;;;29.13;12.10;;;;;;;;;;4920297;29;20404;-71
2023/10/26 06:43:59;;;;;;;92.63;12.23;;;;;;;;;;4904464;29;20051;-71
2023/10/26 06:46:25;;;;;;;37.63;11.25;;;;;;;;;;4923224;29;20483;-69
2023/10/26 06:48:52;;;;;;;31.90;11.55;;;;;;;;;;4921136;29;20044;-70
2023/10/26 06:51:18;;;;;;;27.70;10.60;;;;;;;;;;4920707;29;20051;-70
2023/10/26 06:53:45;;;;;;;31.70;10.57;;;;;;;;;;4920502;29;20114;-71
2023/10/26 06:56:11;;;;;;;105.15;11.77;;;;;;;;;;4904951;29;20122;-71
2023/10/26 06:58:39;;;;;;;80.10;11.35;;;;;;;;;;4920324;29;20048;-71
2023/10/26 07:01:08;;;;;;;54.78;10.68;;;;;;;;;;4920552;29;20516;-71
2023/10/26 07:03:34;;;;;;;53.03;11.57;;;;;;;;;;4920368;29;20036;-71
2023/10/26 07:06:02;;;;;;;50.65;11.50;;;;;;;;;;4920810;29;20036;-70
2023/10/26 07:08:28;;;;;;;40.10;11.10;;;;;;;;;;4919974;29;20139;-71
2023/10/26 07:10:54;;;;;;;88.07;13.27;;;;;;;;;;4919767;29;20492;-71
2023/10/26 07:13:20;;;;;;;76.13;12.63;;;;;;;;;;4919582;29;20035;-71
2023/10/26 07:15:47;;;;;;;148.07;14.27;;;;;;;;;;4919011;29;20052;-71
2023/10/26 07:18:15;;;;;;;55.70;12.02;;;;;;;;;;4902626;29;20047;-71
2023/10/26 07:20:41;;;;;;;80.70;14.35;;;;;;;;;;4903676;29;20046;-71
2023/10/26 07:23:07;;;;;;;39.47;12.63;;;;;;;;;;4889758;29;20128;-70
2023/10/26 07:25:37;;;;;;;35.97;12.38;;;8.60;99.90;;;;;;4919876;29;20396;-71
2023/10/26 07:28:03;;;;;;;35.03;13.27;;;;;;;;;;4904267;29;20047;-71
2023/10/26 07:30:29;;;;;;;33.33;12.95;;;;;;;;;;4905220;29;20047;-71
2023/10/26 07:32:55;;;;;;;51.78;14.35;;;;;;;;;;4921886;29;20048;-70
2023/10/26 07:35:22;;;;;;;32.85;14.38;;;;;;;;;;4923704;29;20043;-70
2023/10/26 07:37:51;;;;;;;49.00;14.88;;;;;;;;;;4928049;29;20050;-70
2023/10/26 07:40:17;;;;;;;23.92;13.70;;;;;;;;;;4922227;29;20107;-71
2023/10/26 07:42:43;;;;;;;30.42;14.80;;;;;;;;;;4922272;29;20047;-71
2023/10/26 07:45:10;;;;;;;25.33;15.75;;;;;;;;;;4923413;29;20109;-70
2023/10/26 07:47:36;;;;;;;20.77;13.80;;;;;;;;;;4923129;29;20377;-71
2023/10/26 07:50:02;;;;;;;26.00;16.10;;;;;;;;;;4920889;29;20098;-71
2023/10/26 07:52:28;;;;;;;29.58;16.52;;;;;;;;;;4923907;29;20051;-71
2023/10/26 07:54:54;;;;;;;38.92;16.77;;;;;;;;;;4921706;29;20044;-70
2023/10/26 07:57:21;;;;;;;23.25;15.85;;;;;;;;;;4925479;29;20485;-70
2023/10/26 07:59:47;;;;;;;27.30;15.90;;;;;;;;;;4925689;29;20047;-71
2023/10/26 08:02:13;;;;;;;27.17;16.95;;;;;;;;;;4925755;29;20050;-71
2023/10/26 08:04:39;;;;;;;30.52;16.52;;;;;;;;;;4933364;29;20050;-71
2023/10/26 08:07:05;;;;;;;25.15;17.05;;;;;;;;;;4907180;29;20054;-71
2023/10/26 08:09:31;;;;;;;26.35;16.85;;;;;;;;;;4911043;29;20146;-71
2023/10/26 08:11:58;;;;;;;26.00;15.90;;;;;;;;;;4912644;29;20049;-73
2023/10/26 08:14:25;;;;;;;27.08;16.55;;;;;;;;;;4923820;29;20047;-71
2023/10/26 08:16:51;;;;;;;26.02;17.38;;;;;;;;;;4906135;29;20342;-71
2023/10/26 08:19:17;;;;;;;26.33;17.20;;;;;;;;;;4920836;29;20131;-71
2023/10/26 08:21:43;;;;;;;26.58;15.82;;;;;;;;;;4922697;29;20091;-71
2023/10/26 08:24:09;;;;;;;30.70;16.85;;;;;;;;;;4905842;29;20048;-71
2023/10/26 08:26:35;;;;;;;20.80;14.27;;;;;;;;;;4936031;29;20079;-79
2023/10/26 08:29:01;;;;;;;28.88;17.45;;;;;;;;;;4906117;29;20401;-78
2023/10/26 08:31:27;;;;;;;23.23;14.85;;;;;;;;;;4922817;29;20032;-79
2023/10/26 08:33:53;;;;;;;26.17;16.80;;;;;;;;;;4909086;29;20481;-79
2023/10/26 08:36:19;;;;;;;29.60;16.98;;;;;;;;;;4922377;29;20039;-78
2023/10/26 08:38:45;;;;;;;25.30;16.77;;;;;;;;;;4919552;29;20043;-78
2023/10/26 08:41:15;;;;;;;35.40;18.20;;;;;;;;;;4883752;29;20039;-78
2023/10/26 08:43:43;;;;;;;27.42;17.27;;;9.90;99.90;;;;;;4916556;29;20055;-78
2023/10/26 08:46:10;;;;;;;26.00;16.63;;;;;;;;;;4904151;29;20456;-79
2023/10/26 08:48:39;;;;;;;29.42;17.98;;;;;;;;;;4921456;29;20078;-81
2023/10/26 08:51:05;;;;;;;29.35;18.55;;;;;;;;;;4921981;29;20043;-79
2023/10/26 08:53:34;;;;;;;32.67;19.55;;;;;;;;;;4890132;29;20040;-71
2023/10/26 08:56:00;;;;;;;26.23;17.10;;;;;;;;;;4923466;29;20048;-79
2023/10/26 08:58:27;;;;;;;26.52;17.38;;;;;;;;;;4918871;29;20048;-78
2023/10/26 09:00:53;;;;;;;29.75;18.77;;;;;;;;;;4924051;29;20050;-77
2023/10/26 09:03:22;;;;;;;30.25;18.90;;;;;;;;;;4925905;29;20040;-71
2023/10/26 09:05:55;;;;;;;32.63;19.58;;;10.30;99.90;;;;;;4918964;29;20062;-70
2023/10/26 09:08:23;;;;;;;28.10;18.83;;;;;;;;;;4904101;29;20040;-70
2023/10/26 09:10:49;;;;;;;27.45;17.90;;;;;;;;;;4905715;29;20062;-71
2023/10/26 09:13:22;;;;;;;32.83;18.95;;;;;;;;;;4921270;29;20051;-70
2023/10/26 09:15:49;;;;;;;33.15;19.92;;;10.40;99.90;;;;;;4922892;29;20453;-71
2023/10/26 09:18:16;;;;;;;32.55;18.95;;;;;;;;;;4906590;29;20043;-71
2023/10/26 09:20:43;;;;;;;33.47;19.77;;;;;;;;;;4918852;29;20058;-71
2023/10/26 09:23:29;;;;;;;30.17;18.58;;;;;;;;;;4918712;29;20122;-71
2023/10/26 09:25:58;;;;;;;33.83;19.77;;;;;;;;;;4918271;29;20043;-71
2023/10/26 09:28:25;;;;;;;32.25;20.17;;;;;;;;;;4917388;29;20084;-71
2023/10/26 09:30:56;;;;;;;34.70;20.08;;;;;;;;;;4903435;29;20043;-71
2023/10/26 09:33:23;;;;;;;27.42;19.25;;;10.70;99.90;;;;;;4900512;29;20489;-71
2023/10/26 09:35:50;;;;;;;27.83;18.67;;;;;;;;;;4905921;29;20436;-75
2023/10/26 09:38:21;;;;;;;29.83;18.83;;;;;;;;;;4890175;29;20122;-75
2023/10/26 09:40:49;;;;;;;32.38;19.63;;;10.60;99.90;;;;;;4918384;29;20040;-71
2023/10/26 09:43:15;;;;;;;32.63;20.83;;;;;;;;;;4899665;29;20051;-71
2023/10/26 09:45:41;;;;;;;36.70;20.75;;;;;;;;;;4919874;29;20559;-71
2023/10/26 09:48:07;;;;;;;31.48;19.95;;;;;;;;;;4926589;29;20051;-71
2023/10/26 09:50:39;;;;;;;34.22;20.08;;;10.60;99.90;;;;;;4935310;29;20043;-71
2023/10/26 09:53:05;;;;;;;33.97;20.55;;;;;;;;;;4922215;29;20452;-71
2023/10/26 09:55:31;;;;;;;37.10;20.95;;;;;;;;;;4920061;29;20059;-71
2023/10/26 09:58:03;;;;;;;33.20;20.77;;;;;;;;;;4918980;29;20051;-71
2023/10/26 10:00:31;;;;;;;32.22;20.80;;;;;;;;;;4918921;29;20040;-72
2023/10/26 10:03:10;;;;;;;32.75;20.70;;;;;;;;;;4918337;29;20044;-72
2023/10/26 10:05:41;;;;;;;34.22;20.65;;;10.60;99.90;;;;;;4918234;29;20048;-71
2023/10/26 10:08:07;;;;;;;34.28;21.02;;;;;;;;;;4922180;29;20176;-72
2023/10/26 10:10:34;;;;;;;32.25;19.92;;;;;;;;;;4927659;29;20048;-71
2023/10/26 10:13:01;;;;;;;35.72;22.05;;;;;;;;;;4921721;29;20527;-71
2023/10/26 10:15:34;;;;;;;32.50;20.77;;;;;;;;;;4923685;29;20062;-71
2023/10/26 10:18:01;;;;;;;38.83;20.92;;;;;;;;;;4928386;29;20130;-71
2023/10/26 10:20:29;;;;;;;32.58;19.92;;;;;;;;;;4925171;29;20400;-71
2023/10/26 10:22:58;;;;;;;34.85;19.92;;;;;;;;;;4901688;29;20488;-71
2023/10/26 10:25:50;;;;;;;33.78;20.50;;;10.80;99.90;;;;;;4934476;29;20500;-71
2023/10/26 10:28:16;;;;;;;32.53;20.23;;;;;;;;;;4918721;29;20070;-71
2023/10/26 10:30:57;;;;;;;37.28;20.25;;;;;;;;;;4926437;29;20636;-71
2023/10/26 10:33:25;;;;;;;33.05;21.05;;;;;;;;;;4906224;29;20053;-71
2023/10/26 10:36:11;;;;;;;29.92;19.17;;;11.10;99.90;;;;;;4927799;29;20135;-71
2023/10/26 10:38:37;;;;;;;31.23;19.40;;;;;;;;;;4904359;29;20079;-71
2023/10/26 10:41:04;;;;;;;29.98;18.65;;;;;;;;;;4896867;29;20130;-71
2023/10/26 10:43:31;;;;;;;33.17;19.65;;;;;;;;;;4903076;29;20408;-71
2023/10/26 10:45:57;;;;;;;31.20;18.77;;;;;;;;;;4904830;29;20123;-71
2023/10/26 10:48:23;;;;;;;27.35;17.92;;;;;;;;;;4924610;29;20059;-71
2023/10/26 10:50:52;;;;;;;33.63;19.98;;;;;;;;;;4927771;29;20035;-71
2023/10/26 10:53:18;;;;;;;29.58;18.45;;;;;;;;;;4897328;29;20079;-70
2023/10/26 10:55:44;;;;;;;29.52;19.20;;;;;;;;;;4900074;29;20131;-71
2023/10/26 10:58:11;;;;;;;31.17;19.70;;;;;;;;;;4905566;29;20059;-71
2023/10/26 11:00:48;;;;;;;31.98;19.63;;;;;;;;;;4918179;29;20054;-72
2023/10/26 11:03:21;;;;;;;30.10;19.42;;;;;;;;;;4918015;29;20048;-71
2023/10/26 11:05:48;;;;;;;30.38;18.55;;;;;;;;;;4918335;29;20527;-72
2023/10/26 11:08:14;;;;;;;31.13;19.23;;;;;;;;;;4918141;29;20055;-71
2023/10/26 11:10:41;;;;;;;29.48;18.27;;;;;;;;;;4922078;29;20066;-70
2023/10/26 11:13:07;;;;;;;30.17;19.30;;;;;;;;;;4921446;29;20492;-69
2023/10/26 11:15:33;;;;;;;25.67;17.83;;;;;;;;;;4919541;29;20047;-69
2023/10/26 11:18:00;;;;;;;30.27;19.65;;;11.60;99.90;;;;;;4926811;29;20039;-70
2023/10/26 11:20:37;;;;;;;27.17;18.23;;;;;;;;;;4906017;29;20040;-70
2023/10/26 11:23:03;;;;;;;28.52;18.75;;;;;;;;;;4921328;29;20101;-70
2023/10/26 11:25:30;;;;;;;25.80;17.02;;;;;;;;;;4921398;29;20046;-69
2023/10/26 11:27:56;;;;;;;25.48;17.23;;;;;;;;;;4921655;29;20119;-70
2023/10/26 11:30:22;;;;;;;26.20;17.27;;;;;;;;;;4921237;29;20046;-70
2023/10/26 11:32:48;;;;;;;28.38;17.70;;;;;;;;;;4926383;29;20054;-70
2023/10/26 11:35:16;;;;;;;26.10;17.15;;;;;;;;;;4927811;29;20107;-70
2023/10/26 11:37:52;;;;;;;35.92;18.52;;;11.70;99.90;;;;;;4922346;29;20110;-71
2023/10/26 11:40:18;;;;;;;27.23;16.73;;;;;;;;;;4905667;29;20047;-71
2023/10/26 11:42:52;;;;;;;26.95;16.65;;;11.80;99.90;;;;;;4920927;29;20206;-71
2023/10/26 11:45:20;;;;;;;36.63;17.88;;;11.80;99.90;;;;;;4920785;29;20039;-70
2023/10/26 11:47:48;;;;;;;30.35;16.25;;;11.80;99.90;;;;;;4915829;29;20043;-70
2023/10/26 11:50:21;;;;;;;26.20;17.08;;;;;;;;;;4925117;29;20051;-70
2023/10/26 11:52:47;;;;;;;27.98;17.60;;;;;;;;;;4920183;29;20091;-70
2023/10/26 11:55:17;;;;;;;26.63;16.95;;;;;;;;;;4932687;29;20507;-70
2023/10/26 11:57:44;;;;;;;28.05;17.38;;;;;;;;;;4929606;29;20048;-70
2023/10/26 12:00:11;;;;;;;24.08;16.48;;;;;;;;;;4920852;29;20107;-70
2023/10/26 12:02:37;;;;;;;25.92;16.92;;;;;;;;;;4923422;29;20500;-71
2023/10/26 12:05:04;;;;;;;23.30;16.00;;;;;;;;;;4921783;29;20040;-70
2023/10/26 12:07:30;;;;;;;26.10;16.83;;;;;;;;;;4923005;29;20116;-70
2023/10/26 12:09:57;;;;;;;23.63;16.25;;;;;;;;;;4910825;29;20079;-70
2023/10/26 12:12:23;;;;;;;22.83;15.25;;;;;;;;;;4913215;29;20130;-70
2023/10/26 12:14:49;;;;;;;22.90;15.90;;;;;;;;;;4928365;29;20047;-70
2023/10/26 12:17:15;;;;;;;22.42;15.75;;;;;;;;;;4947788;29;20488;-70
2023/10/26 12:19:41;;;;;;;23.35;16.23;;;;;;;;;;4957025;29;20179;-71
2023/10/26 12:22:07;;;;;;;27.52;16.73;;;;;;;;;;4928567;29;20044;-70
2023/10/26 12:24:34;;;;;;;22.42;15.05;;;;;;;;;;4920914;29;20044;-70
2023/10/26 12:27:00;;;;;;;22.77;15.38;;;13.30;99.90;;;;;;4919561;29;20048;-70
2023/10/26 12:29:26;;;;;;;22.15;14.88;;;;;;;;;;4920593;29;20051;-70
2023/10/26 12:31:52;;;;;;;20.40;15.15;;;;;;;;;;4920394;29;20496;-70
2023/10/26 12:34:21;;;;;;;20.02;14.05;;;;;;;;;;4922723;29;20131;-70
2023/10/26 12:36:47;;;;;;;19.98;14.45;;;;;;;;;;4906615;29;20043;-70
2023/10/26 12:39:13;;;;;;;19.08;14.18;;;;;;;;;;4920367;29;20044;-69
2023/10/26 12:41:39;;;;;;;22.33;15.25;;;;;;;;;;4920106;29;20047;-69
2023/10/26 12:44:06;;;;;;;18.92;14.45;;;;;;;;;;4920025;29;20080;-70
2023/10/26 12:46:32;;;;;;;24.23;14.80;;;;;;;;;;4924592;29;20123;-70
2023/10/26 12:48:58;;;;;;;23.20;15.32;;;;;;;;;;4923314;29;20492;-70
2023/10/26 12:51:24;;;;;;;23.95;15.85;;;;;;;;;;4919994;29;20044;-69
2023/10/26 12:53:50;;;;;;;23.77;15.82;;;;;;;;;;4903306;29;20556;-70
2023/10/26 12:56:16;;;;;;;27.25;15.15;;;;;;;;;;4904114;29;20220;-70
2023/10/26 12:58:42;;;;;;;21.90;14.43;;;;;;;;;;4919975;29;20106;-69
2023/10/26 13:01:08;;;;;;;25.35;16.33;;;;;;;;;;4919804;29;20043;-69
2023/10/26 13:03:35;;;;;;;22.02;15.18;;;;;;;;;;4904280;29;20098;-69
2023/10/26 13:06:01;;;;;;;22.17;15.43;;;;;;;;;;4919852;29;20050;-69
2023/10/26 13:08:27;;;;;;;23.70;16.48;;;;;;;;;;4904180;29;20560;-70
2023/10/26 13:10:53;;;;;;;22.05;15.55;;;;;;;;;;4919694;29;20122;-69
2023/10/26 13:13:19;;;;;;;23.63;16.33;;;;;;;;;;4919441;29;20047;-69
2023/10/26 13:15:46;;;;;;;26.55;15.77;;;;;;;;;;4905676;29;20050;-69
2023/10/26 13:18:12;;;;;;;25.73;15.55;;;;;;;;;;4919338;29;20396;-69
2023/10/26 13:20:38;;;;;;;20.52;15.82;;;;;;;;;;4917590;29;20043;-69
2023/10/26 13:23:04;;;;;;;21.30;15.50;;;;;;;;;;4915093;29;20054;-70
2023/10/26 13:25:30;;;;;;;19.30;14.23;;;;;;;;;;4920423;29;20044;-72
2023/10/26 13:27:59;;;;;;;21.05;14.07;;;;;;;;;;4919324;29;20040;-69
2023/10/26 13:30:26;;;;;;;21.25;14.10;;;;;;;;;;4919046;29;20139;-70
2023/10/26 13:32:52;;;;;;;19.77;13.82;;;;;;;;;;4931892;29;20176;-69
2023/10/26 13:35:19;;;;;;;18.63;13.65;;;;;;;;;;4935181;29;20432;-70
2023/10/26 13:37:46;;;;;;;19.52;13.55;;;;;;;;;;4934759;29;20111;-70
2023/10/26 13:40:12;;;;;;;18.63;12.98;;;;;;;;;;4905410;29;20044;-70
2023/10/26 13:42:39;;;;;;;19.10;13.63;;;;;;;;;;4918917;29;20055;-70
2023/10/26 13:45:05;;;;;;;16.50;12.90;;;;;;;;;;4901896;29;20056;-70
2023/10/26 13:47:31;;;;;;;17.40;12.55;;;;;;;;;;4917915;29;20563;-70
2023/10/26 13:49:57;;;;;;;16.52;12.02;;;;;;;;;;4919043;29;20416;-70
2023/10/26 13:52:24;;;;;;;16.48;12.73;;;;;;;;;;4902702;29;20098;-72
2023/10/26 13:54:51;;;;;;;16.90;12.13;;;;;;;;;;4917173;29;20050;-73
2023/10/26 13:57:17;;;;;;;16.85;12.38;;;;;;;;;;4916818;29;20043;-73
2023/10/26 13:59:43;;;;;;;16.88;12.82;;;;;;;;;;4901125;29;20051;-73
2023/10/26 14:02:09;;;;;;;13.93;11.07;;;;;;;;;;4916477;29;20039;-72
2023/10/26 14:04:35;;;;;;;16.35;11.88;;;;;;;;;;4916752;29;20158;-72
2023/10/26 14:07:01;;;;;;;15.77;11.60;;;;;;;;;;4916817;29;20637;-72